createdAt,value
2022-12-23T00:03:37.536Z,51.70946
2022-12-23T00:08:39.342Z,52.32011
2022-12-23T00:13:41.047Z,52.67375
2022-12-23T00:18:42.824Z,51.92088
2022-12-23T00:23:44.488Z,49.76481
2022-12-23T00:28:46.149Z,52.04668
2022-12-23T00:33:47.994Z,51.33922
2022-12-23T00:38:49.666Z,49.72742
2022-12-23T00:43:51.362Z,50.56509
2022-12-23T00:48:53.011Z,49.89483
2022-12-23T00:53:54.726Z,48.5943
2022-12-23T00:58:56.414Z,50.23677
2022-12-23T01:03:58.128Z,50.42465
2022-12-23T01:08:59.733Z,51.85518
2022-12-23T01:14:01.400Z,51.41065
2022-12-23T01:19:03.093Z,52.4844
2022-12-23T01:24:04.720Z,54.13962
2022-12-23T01:29:06.521Z,54.04181
2022-12-23T01:34:08.211Z,55.73769
2022-12-23T01:39:09.901Z,53.40535
2022-12-23T01:44:11.680Z,51.33433
2022-12-23T01:49:13.345Z,51.47014
2022-12-23T01:54:15.088Z,51.79294
2022-12-23T01:59:16.905Z,51.03663
2022-12-23T02:04:18.644Z,50.96106
2022-12-23T02:09:20.373Z,50.43481
2022-12-23T02:14:22.252Z,51.01833
2022-12-23T02:19:23.957Z,50.74908
2022-12-23T02:24:25.571Z,50.42027
2022-12-23T02:29:27.217Z,50.6204
2022-12-23T02:34:28.942Z,49.76719
2022-12-23T02:39:30.662Z,50.31093
2022-12-23T02:44:32.351Z,50.4642
2022-12-23T02:49:34.144Z,49.99783
2022-12-23T02:54:35.837Z,51.92576
2022-12-23T02:59:37.648Z,50.9705
2022-12-23T03:04:39.270Z,50.02021
2022-12-23T03:09:40.969Z,49.1439
2022-12-23T03:14:42.677Z,49.35591
2022-12-23T03:19:44.428Z,49.58212
2022-12-23T03:24:46.103Z,49.76888
2022-12-23T03:29:47.849Z,50.24301
2022-12-23T03:34:49.548Z,50.6945
2022-12-23T03:39:51.199Z,50.8982
2022-12-23T03:45:19.664Z,50.5543
2022-12-23T03:50:38.542Z,50.71356
2022-12-23T03:55:40.197Z,50.92491
2022-12-23T04:00:41.917Z,51.21303
2022-12-23T04:05:43.793Z,50.79729
2022-12-23T04:10:45.484Z,49.28732
2022-12-23T04:15:47.195Z,51.45019
2022-12-23T04:20:48.926Z,51.86615
2022-12-23T04:25:50.562Z,51.61455
2022-12-23T04:30:52.231Z,51.47101
2022-12-23T04:35:53.876Z,50.95513
2022-12-23T04:40:55.555Z,51.02357
2022-12-23T04:45:57.426Z,52.25737
2022-12-23T04:50:59.096Z,51.81846
2022-12-23T04:56:00.775Z,49.96588
2022-12-23T05:01:02.525Z,52.71252
2022-12-23T05:06:04.454Z,52.39152
2022-12-23T05:11:06.166Z,50.90733
2022-12-23T05:16:08.048Z,51.61218
2022-12-23T05:21:09.743Z,54.14158
2022-12-23T05:26:11.395Z,52.92697
2022-12-23T05:31:13.297Z,53.68472
2022-12-23T05:36:15.025Z,51.29055
2022-12-23T05:41:16.672Z,51.23986
2022-12-23T05:46:24.316Z,52.09165
2022-12-23T05:51:28.179Z,52.09718
2022-12-23T05:56:30.060Z,51.53711
2022-12-23T06:01:31.781Z,51.86777
2022-12-23T06:06:33.603Z,51.63237
2022-12-23T06:11:35.227Z,50.52034
2022-12-23T06:16:36.995Z,51.96499
2022-12-23T06:21:38.720Z,51.60754
2022-12-23T06:26:40.415Z,53.51332
2022-12-23T06:31:42.142Z,54.3344
2022-12-23T06:36:43.814Z,53.16236
2022-12-23T06:41:45.485Z,53.204
2022-12-23T06:46:47.167Z,51.23313
2022-12-23T06:51:48.932Z,52.60992
2022-12-23T06:56:50.868Z,51.18248
2022-12-23T07:01:52.704Z,51.25525
2022-12-23T07:06:54.478Z,51.73856
2022-12-23T07:11:56.123Z,52.60752
2022-12-23T07:16:58.118Z,52.16099
2022-12-23T07:21:59.880Z,51.87488
2022-12-23T07:27:01.677Z,51.62203
2022-12-23T07:32:03.434Z,51.09092
2022-12-23T07:37:05.238Z,51.41264
2022-12-23T07:42:42.598Z,53.48797
2022-12-23T07:47:46.375Z,51.54135
2022-12-23T07:52:48.013Z,51.30277
2022-12-23T07:57:49.796Z,53.23824
2022-12-23T08:02:51.612Z,51.04529
2022-12-23T08:07:53.291Z,52.47985
2022-12-23T08:12:55.122Z,51.95231
2022-12-23T08:17:56.880Z,53.29447
2022-12-23T08:22:58.638Z,53.99135
2022-12-23T08:28:00.368Z,55.12268
2022-12-23T08:33:02.038Z,55.58264
2022-12-23T08:38:03.765Z,54.83565
2022-12-23T08:43:05.414Z,52.4385
2022-12-23T08:48:07.100Z,53.41178
2022-12-23T08:53:08.778Z,53.28764
2022-12-23T08:58:10.417Z,53.19163
2022-12-23T09:03:12.405Z,52.08571
2022-12-23T09:08:14.134Z,52.53873
2022-12-23T09:13:25.008Z,53.88839
2022-12-23T09:18:29.771Z,52.71244
2022-12-23T09:23:31.443Z,54.21667
2022-12-23T09:28:33.124Z,52.42032
2022-12-23T09:33:34.785Z,51.95661
2022-12-23T09:38:36.682Z,52.66752
2022-12-23T09:43:38.382Z,52.85314
2022-12-23T09:48:40.062Z,52.36228
2022-12-23T09:53:41.779Z,54.22483
2022-12-23T09:58:43.383Z,54.7494
2022-12-23T10:03:45.212Z,54.56224
2022-12-23T10:08:47.225Z,57.02113
2022-12-23T10:13:48.874Z,58.05224
2022-12-23T10:18:50.601Z,58.74136
2022-12-23T10:23:52.310Z,58.47058
2022-12-23T10:28:53.950Z,59.73632
2022-12-23T10:33:55.637Z,59.13572
2022-12-23T10:38:57.415Z,57.51954
2022-12-23T10:43:59.100Z,60.38307
2022-12-23T10:49:00.816Z,62.44455
2022-12-23T10:54:02.573Z,63.19162
2022-12-23T10:59:04.284Z,61.75846
2022-12-23T11:04:05.940Z,61.63513
2022-12-23T11:09:07.988Z,62.76458
2022-12-23T11:14:09.797Z,62.89116
2022-12-23T11:19:11.792Z,62.50629
2022-12-23T11:24:13.460Z,63.51784
2022-12-23T11:29:15.275Z,63.3512
2022-12-23T11:34:17.115Z,61.37349
2022-12-23T11:39:18.760Z,61.4765
2022-12-23T11:44:20.454Z,61.36957
2022-12-23T11:49:22.103Z,60.5254
2022-12-23T11:54:23.811Z,60.03176
2022-12-23T11:59:25.657Z,59.12
2022-12-23T12:04:27.320Z,57.35459
2022-12-23T12:09:29.315Z,58.82993
2022-12-23T12:14:31.138Z,58.1739
2022-12-23T12:19:32.962Z,59.23348
2022-12-23T12:24:34.668Z,58.81417
2022-12-23T12:29:36.551Z,59.50624
2022-12-23T12:34:38.272Z,59.49454
2022-12-23T12:39:40.040Z,57.38536
2022-12-23T12:44:41.736Z,58.37336
2022-12-23T12:49:43.637Z,58.26765
2022-12-23T12:54:45.285Z,61.16073
2022-12-23T12:59:46.940Z,58.40941
2022-12-23T13:04:48.840Z,58.20535
2022-12-23T13:09:50.516Z,59.13749
2022-12-23T13:14:52.485Z,59.77414
2022-12-23T13:19:54.162Z,59.64014
2022-12-23T13:24:55.866Z,59.20284
2022-12-23T13:29:58.574Z,59.85308
2022-12-23T13:35:00.376Z,59.87628
2022-12-23T13:40:02.091Z,58.8526
2022-12-23T13:45:03.841Z,57.69907
2022-12-23T13:50:05.642Z,60.29125
2022-12-23T13:55:07.463Z,62.04756
2022-12-23T14:00:09.125Z,61.81386
2022-12-23T14:05:16.497Z,60.52796
2022-12-23T14:10:18.684Z,63.2525
2022-12-23T14:15:20.411Z,60.5886
2022-12-23T14:20:22.081Z,65.16169
2022-12-23T14:25:23.930Z,64.0426
2022-12-23T14:30:25.643Z,66.35112
2022-12-23T14:35:27.260Z,65.95659
2022-12-23T14:40:28.947Z,66.44783
2022-12-23T14:45:30.550Z,68.5432
2022-12-23T14:50:32.368Z,69.38332
2022-12-23T14:55:33.980Z,65.09319
2022-12-23T15:00:35.907Z,63.44162
2022-12-23T15:05:37.494Z,59.68807
2022-12-23T15:10:39.131Z,59.39403
2022-12-23T15:15:40.811Z,58.91828
2022-12-23T15:20:43.294Z,63.46965
2022-12-23T15:25:44.937Z,64.77393
2022-12-23T15:30:46.649Z,64.59978
2022-12-23T15:35:48.409Z,63.86857
2022-12-23T15:40:50.109Z,62.28543
2022-12-23T15:45:51.884Z,65.29524
2022-12-23T15:50:53.585Z,64.33042
2022-12-23T15:55:55.306Z,63.80945
2022-12-23T16:00:56.929Z,63.97122
2022-12-23T16:05:58.672Z,65.31279
2022-12-23T16:11:00.435Z,63.61522
2022-12-23T16:16:02.126Z,67.15609
2022-12-23T16:21:03.831Z,66.73329
2022-12-23T16:26:05.564Z,67.15785
2022-12-23T16:31:07.244Z,62.90334
2022-12-23T16:36:09.190Z,62.40534
2022-12-23T16:41:10.851Z,62.22003
2022-12-23T16:46:12.733Z,63.81256
2022-12-23T16:51:14.445Z,61.79283
2022-12-23T16:56:16.069Z,64.85432
2022-12-23T17:01:17.694Z,63.77443
2022-12-23T17:06:19.478Z,63.19662
2022-12-23T17:11:21.173Z,62.50348
2022-12-23T17:16:22.876Z,64.21941
2022-12-23T17:21:24.656Z,65.03375
2022-12-23T17:26:26.347Z,62.98693
2022-12-23T17:31:28.074Z,64.05795
2022-12-23T17:36:29.894Z,62.07049
2022-12-23T17:41:31.610Z,65.14872
2022-12-23T17:46:33.654Z,63.68885
2022-12-23T17:51:35.307Z,64.90313
2022-12-23T17:56:36.959Z,65.32671
2022-12-23T18:01:38.925Z,63.47191
2022-12-23T18:06:40.923Z,63.27219
2022-12-23T18:11:42.713Z,61.16461
2022-12-23T18:16:44.541Z,62.55551
2022-12-23T18:21:46.421Z,61.8521
2022-12-23T18:26:48.051Z,62.12498
2022-12-23T18:31:51.049Z,63.85102
2022-12-23T18:36:53.993Z,64.1651
2022-12-23T18:41:55.713Z,63.16197
2022-12-23T18:46:57.473Z,63.48669
2022-12-23T18:51:59.193Z,62.55697
2022-12-23T18:57:00.966Z,61.32098
2022-12-23T19:02:02.756Z,62.08074
2022-12-23T19:07:04.455Z,64.20348
2022-12-23T19:12:06.221Z,64.09762
2022-12-23T19:17:08.123Z,62.64202
2022-12-23T19:22:09.798Z,62.95454
2022-12-23T19:27:11.732Z,61.59854
2022-12-23T19:32:13.353Z,61.79373
2022-12-23T19:37:15.006Z,61.4024
2022-12-23T19:42:16.655Z,60.0551
2022-12-23T19:47:18.320Z,62.63104
2022-12-23T19:52:19.984Z,63.12757
2022-12-23T19:57:21.623Z,62.70545
2022-12-23T20:02:23.291Z,61.69664
2022-12-23T20:07:24.996Z,59.997
2022-12-23T20:12:26.635Z,59.8937
2022-12-23T20:17:28.260Z,58.2222
2022-12-23T20:22:29.932Z,60.31009
2022-12-23T20:27:31.804Z,58.12889
2022-12-23T20:32:33.542Z,60.55852
2022-12-23T20:37:35.457Z,58.59653
2022-12-23T20:42:37.259Z,60.99086
2022-12-23T20:47:38.926Z,60.24793
2022-12-23T20:52:40.562Z,58.95028
2022-12-23T20:57:42.225Z,59.90333
2022-12-23T21:02:43.932Z,62.0198
2022-12-23T21:07:45.635Z,62.21865
2022-12-23T21:12:47.335Z,62.85595
2022-12-23T21:17:49.055Z,62.54874
2022-12-23T21:22:50.704Z,59.5346
2022-12-23T21:27:52.301Z,59.71347
2022-12-23T21:32:53.932Z,59.04011
2022-12-23T21:37:55.568Z,62.92844
2022-12-23T21:42:57.390Z,59.68872
2022-12-23T21:47:59.048Z,57.70923
2022-12-23T21:53:00.754Z,61.7602
2022-12-23T21:58:02.410Z,62.26603
2022-12-23T22:03:04.061Z,59.59691
2022-12-23T22:08:05.694Z,59.15144
2022-12-23T22:13:07.432Z,60.74508
2022-12-23T22:18:09.078Z,64.54724
2022-12-23T22:23:10.744Z,60.75034
2022-12-23T22:28:12.489Z,59.82564
2022-12-23T22:33:14.118Z,62.48353
2022-12-23T22:38:15.771Z,61.10039
2022-12-23T22:43:17.468Z,61.87249
2022-12-23T22:48:19.149Z,64.31166
2022-12-23T22:53:24.908Z,67.03472
2022-12-23T22:58:31.396Z,67.17468
2022-12-23T23:03:33.134Z,63.67777
2022-12-23T23:08:34.874Z,62.30205
2022-12-23T23:13:36.484Z,62.2293
2022-12-23T23:18:38.230Z,62.18453
2022-12-23T23:23:39.853Z,62.7175
2022-12-23T23:28:41.477Z,63.11158
2022-12-23T23:33:43.180Z,62.62341
2022-12-23T23:38:44.823Z,64.38682
2022-12-23T23:43:46.518Z,62.57553
2022-12-23T23:48:48.159Z,61.80987
2022-12-23T23:53:49.874Z,62.1377
2022-12-23T23:58:51.565Z,63.00276
